createdAt,value
2019-05-02T00:00:06.040Z,9.97
2019-05-02T00:02:40.955Z,9.96
2019-05-02T00:05:16.020Z,9.95
2019-05-02T00:07:48.610Z,9.91
2019-05-02T00:10:24.956Z,9.90
2019-05-02T00:12:57.430Z,9.89
2019-05-02T00:15:33.179Z,9.89
2019-05-02T00:18:05.661Z,9.87
2019-05-02T00:20:38.679Z,9.84
2019-05-02T00:23:11.850Z,9.78
2019-05-02T00:25:47.258Z,9.73
2019-05-02T00:28:19.265Z,9.67
2019-05-02T00:30:51.769Z,9.62
2019-05-02T00:33:29.334Z,9.57
2019-05-02T00:35:59.090Z,9.53
2019-05-02T00:38:33.265Z,9.51
2019-05-02T00:41:06.485Z,9.43
2019-05-02T00:43:39.106Z,9.35
2019-05-02T00:46:11.849Z,9.33
2019-05-02T00:48:48.564Z,9.27
2019-05-02T00:51:22.001Z,9.26
2019-05-02T00:53:56.903Z,9.18
2019-05-02T00:56:29.520Z,9.15
2019-05-02T00:59:07.061Z,9.12
2019-05-02T01:01:39.550Z,9.07
2019-05-02T01:04:16.625Z,9.05
2019-05-02T01:06:50.787Z,9.01
2019-05-02T01:09:23.639Z,8.94
2019-05-02T01:11:56.530Z,8.91
2019-05-02T01:14:31.737Z,8.85
2019-05-02T01:17:04.530Z,8.85
2019-05-02T01:19:37.290Z,8.81
2019-05-02T01:22:10.695Z,8.74
2019-05-02T01:24:44.400Z,8.69
2019-05-02T01:27:28.191Z,8.62
2019-05-02T01:30:09.680Z,8.58
2019-05-02T01:32:46.911Z,8.48
2019-05-02T01:35:26.952Z,8.40
2019-05-02T01:38:17.674Z,8.30
2019-05-02T01:40:53.219Z,8.22
2019-05-02T01:43:32.160Z,8.14
2019-05-02T01:46:04.720Z,8.05
2019-05-02T01:48:40.047Z,8.05
2019-05-02T01:51:12.157Z,8.00
2019-05-02T01:53:44.870Z,7.95
2019-05-02T01:56:17.359Z,7.92
2019-05-02T01:58:52.955Z,7.87
2019-05-02T02:01:24.367Z,7.91
2019-05-02T02:03:56.885Z,7.87
2019-05-02T02:06:29.560Z,7.85
2019-05-02T02:09:03.416Z,7.78
2019-05-02T02:11:38.046Z,7.73
2019-05-02T02:14:12.863Z,7.73
2019-05-02T02:16:45.256Z,7.70
2019-05-02T02:19:19.629Z,7.70
2019-05-02T02:21:57.326Z,7.69
2019-05-02T02:24:32.420Z,7.69
2019-05-02T02:27:05.124Z,7.69
2019-05-02T02:29:39.094Z,7.70
2019-05-02T02:32:12.290Z,7.69
2019-05-02T02:34:44.983Z,7.70
2019-05-02T02:37:17.600Z,7.70
2019-05-02T02:39:54.170Z,7.80
2019-05-02T02:42:31.177Z,7.84
2019-05-02T02:45:00.812Z,7.90
2019-05-02T02:47:34.821Z,7.90
2019-05-02T02:50:08.510Z,7.97
2019-05-02T02:52:44.652Z,7.99
2019-05-02T02:55:22.262Z,8.01
2019-05-02T02:57:50.915Z,7.93
2019-05-02T03:00:23.375Z,7.93
2019-05-02T03:02:56.371Z,7.89
2019-05-02T03:05:28.901Z,7.87
2019-05-02T03:08:05.414Z,7.93
2019-05-02T03:10:39.924Z,8.01
2019-05-02T03:13:24.282Z,8.01
2019-05-02T03:16:12.581Z,8.06
2019-05-02T03:18:45.415Z,8.09
2019-05-02T03:21:20.165Z,8.09
2019-05-02T03:24:01.559Z,8.16
2019-05-02T03:26:27.697Z,8.20
2019-05-02T03:29:01.078Z,8.20
2019-05-02T03:31:33.581Z,8.22
2019-05-02T03:34:06.558Z,8.22
2019-05-02T03:36:40.202Z,8.35
2019-05-02T03:39:17.158Z,8.37
2019-05-02T03:41:47.392Z,8.45
2019-05-02T03:44:26.045Z,8.45
2019-05-02T03:47:01.898Z,8.48
2019-05-02T03:49:29.225Z,8.50
2019-05-02T03:52:03.268Z,8.54
2019-05-02T03:54:48.363Z,8.54
2019-05-02T03:57:10.925Z,8.49
2019-05-02T03:59:43.616Z,8.51
2019-05-02T04:02:20.488Z,8.51
2019-05-02T04:04:54.138Z,8.46
2019-05-02T04:07:26.631Z,8.49
2019-05-02T04:09:59.665Z,8.44
2019-05-02T04:12:32.976Z,8.47
2019-05-02T04:15:09.570Z,8.52
2019-05-02T04:17:42.895Z,8.54
2019-05-02T04:20:15.911Z,8.53
2019-05-02T04:22:50.685Z,8.53
2019-05-02T04:25:27.886Z,8.66
2019-05-02T04:28:05.974Z,8.72
2019-05-02T04:30:35.607Z,8.83
2019-05-02T04:33:08.178Z,8.94
2019-05-02T04:35:40.750Z,9.00
2019-05-02T04:38:20.276Z,8.89
2019-05-02T04:40:49.587Z,9.01
2019-05-02T04:43:22.327Z,9.05
2019-05-02T04:45:57.406Z,9.05
2019-05-02T04:48:34.554Z,8.98
2019-05-02T04:51:10.377Z,8.96
2019-05-02T04:53:42.157Z,8.99
2019-05-02T04:56:13.256Z,9.13
2019-05-02T04:58:48.978Z,9.13
2019-05-02T05:01:21.797Z,9.10
2019-05-02T05:03:58.270Z,9.15
2019-05-02T05:06:29.421Z,9.19
2019-05-02T05:09:04.057Z,9.19
2019-05-02T05:11:38.132Z,9.25
2019-05-02T05:14:10.761Z,9.30
2019-05-02T05:16:45.345Z,9.32
2019-05-02T05:19:17.905Z,9.33
2019-05-02T05:21:50.607Z,9.37
2019-05-02T05:24:28.081Z,9.46
2019-05-02T05:27:00.821Z,9.50
2019-05-02T05:29:33.590Z,10.98
2019-05-02T05:32:09.875Z,10.97
2019-05-02T05:34:41.225Z,12.16
2019-05-02T05:37:13.810Z,11.72
2019-05-02T05:39:48.790Z,11.72
2019-05-02T05:42:23.188Z,10.75
2019-05-02T05:44:55.428Z,10.56
2019-05-02T05:47:28.330Z,10.35
2019-05-02T05:50:01.406Z,10.28
2019-05-02T05:52:38.697Z,10.10
2019-05-02T05:55:12.682Z,10.05
2019-05-02T05:57:44.370Z,9.90
2019-05-02T06:00:23.060Z,9.93
2019-05-02T06:02:56.275Z,9.70
2019-05-02T06:05:27.649Z,9.64
2019-05-02T06:08:00.315Z,9.54
2019-05-02T06:10:33.179Z,9.75
2019-05-02T06:13:11.103Z,9.77
2019-05-02T06:15:40.477Z,9.77
2019-05-02T06:18:13.511Z,9.76
2019-05-02T06:20:46.075Z,10.05
2019-05-02T06:23:19.305Z,10.01
2019-05-02T06:25:52.115Z,9.98
2019-05-02T06:28:24.504Z,9.85
2019-05-02T06:30:57.505Z,9.89
2019-05-02T06:33:30.553Z,10.00
2019-05-02T06:36:04.995Z,9.82
2019-05-02T06:38:37.566Z,9.81
2019-05-02T06:41:10.684Z,9.86
2019-05-02T06:43:46.501Z,9.89
2019-05-02T06:46:21.856Z,9.92
2019-05-02T06:48:52.542Z,10.07
2019-05-02T06:51:27.605Z,9.97
2019-05-02T06:54:00.326Z,10.15
2019-05-02T06:56:32.989Z,10.35
2019-05-02T06:59:05.775Z,10.35
2019-05-02T07:01:38.750Z,10.41
2019-05-02T07:04:11.215Z,10.33
2019-05-02T07:06:57.203Z,10.16
2019-05-02T07:09:18.871Z,9.95
2019-05-02T07:11:57.461Z,10.03
2019-05-02T07:14:26.250Z,9.90
2019-05-02T07:17:01.226Z,10.10
2019-05-02T07:19:42.360Z,10.22
2019-05-02T07:22:15.156Z,10.33
2019-05-02T07:24:48.004Z,10.35
2019-05-02T07:27:20.960Z,10.73
2019-05-02T07:29:57.853Z,10.75
2019-05-02T07:32:29.339Z,11.08
2019-05-02T07:35:01.886Z,11.48
2019-05-02T07:37:34.700Z,11.74
2019-05-02T07:40:12.062Z,11.86
2019-05-02T07:42:44.635Z,11.91
2019-05-02T07:45:17.521Z,11.75
2019-05-02T07:47:50.115Z,11.50
2019-05-02T07:50:22.730Z,11.66
2019-05-02T07:52:55.605Z,11.82
2019-05-02T07:55:30.517Z,11.98
2019-05-02T07:58:06.993Z,11.85
2019-05-02T08:00:38.353Z,11.67
2019-05-02T08:03:11.255Z,11.58
2019-05-02T08:05:43.906Z,11.50
2019-05-02T08:08:16.405Z,11.21
2019-05-02T08:10:53.832Z,11.34
2019-05-02T08:13:23.540Z,11.21
2019-05-02T08:15:56.352Z,11.50
2019-05-02T08:18:30.349Z,11.69
2019-05-02T08:21:03.560Z,11.36
2019-05-02T08:23:36.365Z,11.48
2019-05-02T08:26:09.055Z,11.51
2019-05-02T08:28:47.003Z,11.57
2019-05-02T08:31:18.872Z,11.87
2019-05-02T08:33:52.905Z,12.23
2019-05-02T08:36:26.425Z,11.88
2019-05-02T08:38:58.895Z,11.91
2019-05-02T08:41:31.415Z,11.81
2019-05-02T08:44:03.875Z,12.05
2019-05-02T08:46:36.164Z,12.11
2019-05-02T08:49:08.416Z,11.86
2019-05-02T08:51:41.602Z,12.09
2019-05-02T08:54:14.279Z,12.18
2019-05-02T08:56:46.738Z,12.12
2019-05-02T08:59:19.689Z,12.13
2019-05-02T09:01:52.596Z,11.86
2019-05-02T09:04:29.117Z,12.06
2019-05-02T09:07:00.770Z,12.25
2019-05-02T09:09:33.700Z,12.24
2019-05-02T09:12:12.270Z,12.44
2019-05-02T09:14:42.577Z,12.42
2019-05-02T09:17:16.646Z,12.39
2019-05-02T09:20:00.375Z,12.10
2019-05-02T09:22:24.142Z,12.46
2019-05-02T09:24:56.617Z,12.65
2019-05-02T09:27:31.699Z,12.29
2019-05-02T09:30:04.181Z,12.39
2019-05-02T09:32:37.215Z,12.66
2019-05-02T09:35:11.671Z,12.64
2019-05-02T09:37:44.922Z,12.84
2019-05-02T09:40:22.030Z,13.04
2019-05-02T09:42:58.460Z,12.95
2019-05-02T09:45:33.339Z,13.04
2019-05-02T09:48:07.014Z,13.44
2019-05-02T09:50:38.452Z,13.66
2019-05-02T09:53:20.049Z,13.37
2019-05-02T09:55:50.196Z,13.51
2019-05-02T09:58:21.885Z,13.93
2019-05-02T10:00:55.806Z,14.16
2019-05-02T10:03:28.790Z,14.34
2019-05-02T10:06:03.098Z,14.58
2019-05-02T10:08:38.255Z,14.83
2019-05-02T10:11:11.756Z,14.47
2019-05-02T10:13:44.830Z,14.66
2019-05-02T10:16:17.915Z,15.03
2019-05-02T10:18:52.320Z,14.58
2019-05-02T10:21:25.550Z,14.61
2019-05-02T10:23:59.380Z,14.36
2019-05-02T10:26:33.235Z,14.60
2019-05-02T10:29:06.962Z,14.67
2019-05-02T10:31:41.529Z,14.58
2019-05-02T10:34:17.504Z,14.23
2019-05-02T10:36:54.288Z,14.55
2019-05-02T10:39:23.606Z,15.39
2019-05-02T10:41:57.602Z,15.65
2019-05-02T10:44:32.612Z,15.53
2019-05-02T10:47:05.020Z,16.11
2019-05-02T10:49:42.692Z,16.13
2019-05-02T10:52:15.392Z,15.39
2019-05-02T10:54:47.929Z,15.29
2019-05-02T10:57:21.959Z,15.33
2019-05-02T10:59:56.205Z,15.43
2019-05-02T11:02:34.203Z,15.60
2019-05-02T11:05:08.970Z,15.30
2019-05-02T11:07:42.716Z,15.07
2019-05-02T11:10:15.705Z,14.73
2019-05-02T11:12:59.270Z,15.23
2019-05-02T11:15:49.987Z,14.83
2019-05-02T11:18:39.419Z,15.39
2019-05-02T11:21:03.034Z,15.03
2019-05-02T11:23:33.289Z,15.04
2019-05-02T11:26:06.151Z,15.49
2019-05-02T11:28:39.059Z,15.42
2019-05-02T11:31:12.508Z,15.43
2019-05-02T11:33:45.380Z,15.59
2019-05-02T11:36:17.924Z,15.09
2019-05-02T11:39:00.559Z,15.08
2019-05-02T11:41:24.989Z,15.02
2019-05-02T11:43:57.959Z,14.88
2019-05-02T11:46:32.826Z,15.27
2019-05-02T11:49:05.259Z,15.51
2019-05-02T11:51:38.466Z,15.05
2019-05-02T11:54:12.882Z,14.84
2019-05-02T11:56:49.045Z,14.71
2019-05-02T11:59:27.734Z,14.98
2019-05-02T12:02:00.171Z,15.03
2019-05-02T12:04:33.604Z,15.02
2019-05-02T12:07:06.669Z,14.83
2019-05-02T12:09:39.417Z,15.23
2019-05-02T12:12:15.655Z,15.34
2019-05-02T12:14:48.720Z,15.54
2019-05-02T12:17:21.770Z,15.17
2019-05-02T12:19:54.816Z,15.79
2019-05-02T12:22:27.809Z,15.70
2019-05-02T12:25:02.868Z,16.49
2019-05-02T12:27:34.910Z,16.36
2019-05-02T12:30:08.142Z,16.67
2019-05-02T12:32:42.725Z,16.29
2019-05-02T12:35:15.784Z,16.44
2019-05-02T12:37:53.699Z,16.10
2019-05-02T12:40:23.609Z,16.32
2019-05-02T12:42:56.770Z,16.26
2019-05-02T12:45:29.659Z,15.99
2019-05-02T12:48:02.569Z,15.45
2019-05-02T12:50:35.472Z,15.88
2019-05-02T12:53:08.070Z,15.65
2019-05-02T12:55:42.139Z,15.51
2019-05-02T12:58:15.374Z,15.37
2019-05-02T13:00:47.865Z,15.66
2019-05-02T13:03:38.239Z,15.72
2019-05-02T13:06:12.288Z,15.66
2019-05-02T13:08:52.395Z,15.65
2019-05-02T13:11:36.768Z,15.65
2019-05-02T13:14:16.945Z,15.58
2019-05-02T13:16:43.049Z,15.51
2019-05-02T13:19:16.059Z,15.51
2019-05-02T13:21:59.513Z,15.73
2019-05-02T13:24:33.535Z,15.72
2019-05-02T13:27:08.905Z,15.18
2019-05-02T13:29:42.855Z,15.72
2019-05-02T13:32:18.830Z,15.72
2019-05-02T13:35:06.911Z,15.86
2019-05-02T13:37:40.021Z,16.01
2019-05-02T13:40:18.905Z,16.35
2019-05-02T13:42:52.371Z,16.27
2019-05-02T13:45:41.937Z,16.06
2019-05-02T13:48:14.885Z,16.09
2019-05-02T13:50:47.875Z,15.69
2019-05-02T13:53:22.691Z,16.01
2019-05-02T13:55:59.335Z,16.24
2019-05-02T13:58:33.201Z,15.76
2019-05-02T14:01:06.105Z,15.73
2019-05-02T14:03:38.855Z,15.91
2019-05-02T14:06:12.399Z,15.55
2019-05-02T14:08:49.770Z,15.38
2019-05-02T14:11:41.061Z,15.35
2019-05-02T14:14:13.755Z,16.09
2019-05-02T14:16:46.360Z,16.23
2019-05-02T14:19:19.045Z,16.27
2019-05-02T14:21:51.973Z,15.81
2019-05-02T14:24:24.466Z,15.57
2019-05-02T14:26:57.163Z,15.56
2019-05-02T14:29:30.032Z,15.24
2019-05-02T14:32:02.822Z,15.45
2019-05-02T14:34:49.320Z,15.55
2019-05-02T14:37:22.718Z,15.53
2019-05-02T14:39:57.195Z,16.01
2019-05-02T14:42:29.585Z,15.75
2019-05-02T14:45:11.930Z,15.51
2019-05-02T14:47:36.346Z,15.70
2019-05-02T14:50:23.168Z,15.75
2019-05-02T14:52:45.754Z,15.67
2019-05-02T14:55:23.934Z,15.46
2019-05-02T14:57:52.696Z,15.86
2019-05-02T15:00:33.396Z,15.71
2019-05-02T15:03:03.254Z,15.82
2019-05-02T15:05:35.970Z,15.73
2019-05-02T15:08:08.695Z,15.83
2019-05-02T15:10:50.816Z,15.78
2019-05-02T15:13:15.550Z,15.57
2019-05-02T15:15:48.385Z,15.28
2019-05-02T15:18:22.709Z,15.25
2019-05-02T15:20:55.180Z,15.43
2019-05-02T15:23:27.705Z,15.49
2019-05-02T15:26:00.414Z,15.42
2019-05-02T15:28:37.380Z,15.45
2019-05-02T15:31:11.707Z,15.43
2019-05-02T15:33:51.886Z,15.17
2019-05-02T15:36:24.680Z,15.35
2019-05-02T15:38:57.161Z,15.44
2019-05-02T15:41:29.703Z,15.43
2019-05-02T15:44:02.365Z,15.25
2019-05-02T15:46:34.919Z,15.13
2019-05-02T15:49:07.735Z,14.84
2019-05-02T15:51:43.647Z,14.94
2019-05-02T15:54:18.929Z,14.99
2019-05-02T15:57:00.402Z,14.98
2019-05-02T15:59:37.517Z,14.83
2019-05-02T16:02:17.556Z,14.63
2019-05-02T16:04:48.375Z,14.74
2019-05-02T16:07:22.484Z,14.75
2019-05-02T16:09:59.379Z,14.76
2019-05-02T16:12:32.179Z,14.86
2019-05-02T16:15:13.019Z,14.74
2019-05-02T16:17:38.255Z,14.88
2019-05-02T16:20:17.050Z,14.90
2019-05-02T16:22:50.079Z,14.95
2019-05-02T16:25:24.519Z,14.82
2019-05-02T16:28:04.612Z,14.63
2019-05-02T16:30:32.304Z,14.66
2019-05-02T16:33:08.462Z,14.67
2019-05-02T16:35:39.195Z,14.53
2019-05-02T16:38:12.307Z,14.30
2019-05-02T16:40:47.085Z,14.17
2019-05-02T16:43:20.160Z,14.07
2019-05-02T16:45:52.970Z,14.09
2019-05-02T16:48:30.013Z,13.97
2019-05-02T16:51:02.023Z,13.98
2019-05-02T16:53:34.420Z,13.92
2019-05-02T16:56:07.240Z,13.81
2019-05-02T16:58:43.309Z,13.75
2019-05-02T17:01:19.667Z,13.76
2019-05-02T17:03:49.159Z,13.77
2019-05-02T17:06:26.078Z,13.69
2019-05-02T17:09:05.775Z,13.64
2019-05-02T17:11:41.960Z,13.70
2019-05-02T17:14:14.649Z,13.64
2019-05-02T17:16:51.431Z,13.56
2019-05-02T17:19:21.625Z,13.49
2019-05-02T17:21:56.513Z,13.49
2019-05-02T17:24:28.864Z,13.53
2019-05-02T17:27:02.531Z,13.61
2019-05-02T17:29:35.644Z,13.68
2019-05-02T17:32:09.005Z,13.60
2019-05-02T17:34:42.203Z,13.56
2019-05-02T17:37:15.125Z,13.53
2019-05-02T17:39:47.850Z,13.46
2019-05-02T17:42:22.353Z,13.38
2019-05-02T17:44:57.917Z,13.30
2019-05-02T17:47:31.049Z,13.19
2019-05-02T17:50:06.905Z,13.11
2019-05-02T17:52:48.365Z,13.02
2019-05-02T17:55:21.547Z,12.96
2019-05-02T17:57:54.554Z,12.82
2019-05-02T18:00:29.220Z,12.74
2019-05-02T18:03:02.522Z,12.69
2019-05-02T18:05:36.160Z,12.58
2019-05-02T18:08:10.978Z,12.45
2019-05-02T18:10:43.575Z,12.35
2019-05-02T18:13:16.364Z,12.23
2019-05-02T18:15:49.114Z,12.17
2019-05-02T18:18:22.189Z,12.08
2019-05-02T18:20:55.105Z,12.00
2019-05-02T18:23:27.910Z,11.89
2019-05-02T18:26:02.786Z,11.81
2019-05-02T18:28:46.153Z,11.72
2019-05-02T18:31:09.489Z,11.61
2019-05-02T18:33:42.576Z,11.54
2019-05-02T18:36:17.456Z,11.46
2019-05-02T18:38:54.256Z,11.38
2019-05-02T18:41:26.386Z,11.31
2019-05-02T18:44:00.420Z,11.23
2019-05-02T18:46:36.688Z,11.15
2019-05-02T18:49:08.126Z,11.10
2019-05-02T18:51:42.331Z,11.01
2019-05-02T18:54:15.065Z,10.94
2019-05-02T18:56:51.355Z,10.88
2019-05-02T18:59:26.982Z,10.80
2019-05-02T19:01:59.648Z,10.77
2019-05-02T19:04:38.217Z,10.75
2019-05-02T19:07:07.427Z,10.72
2019-05-02T19:09:50.797Z,10.70
2019-05-02T19:12:22.268Z,10.64
2019-05-02T19:14:50.385Z,10.63
2019-05-02T19:17:23.055Z,10.58
2019-05-02T19:19:55.730Z,10.53
2019-05-02T19:22:28.705Z,10.47
2019-05-02T19:25:03.754Z,10.42
2019-05-02T19:27:52.195Z,10.37
2019-05-02T19:30:39.500Z,10.34
2019-05-02T19:33:12.297Z,10.29
2019-05-02T19:35:46.896Z,10.24
2019-05-02T19:38:22.552Z,10.21
2019-05-02T19:40:58.173Z,10.20
2019-05-02T19:43:28.208Z,10.17
2019-05-02T19:46:02.199Z,10.11
2019-05-02T19:48:36.811Z,10.08
2019-05-02T19:51:12.722Z,10.01
2019-05-02T19:53:43.759Z,9.95
2019-05-02T19:56:16.375Z,9.92
2019-05-02T19:58:49.035Z,9.88
2019-05-02T20:01:22.984Z,9.84
2019-05-02T20:03:56.842Z,9.79
2019-05-02T20:06:32.428Z,9.77
2019-05-02T20:09:08.313Z,9.76
2019-05-02T20:11:42.885Z,9.75
2019-05-02T20:14:15.859Z,9.76
2019-05-02T20:16:53.135Z,9.81
2019-05-02T20:19:27.137Z,9.89
2019-05-02T20:22:06.501Z,9.97
2019-05-02T20:25:00.177Z,10.00
2019-05-02T20:27:32.784Z,10.03
2019-05-02T20:30:06.999Z,10.06
2019-05-02T20:32:39.765Z,10.07
2019-05-02T20:35:13.830Z,10.09
2019-05-02T20:37:46.590Z,10.13
2019-05-02T20:40:31.895Z,10.13
2019-05-02T20:43:05.219Z,10.17
2019-05-02T20:45:37.870Z,10.17
2019-05-02T20:48:11.894Z,10.16
2019-05-02T20:50:44.670Z,10.16
2019-05-02T20:53:28.023Z,10.18
2019-05-02T20:55:52.596Z,10.23
2019-05-02T20:58:25.315Z,10.30
2019-05-02T21:01:07.059Z,10.38
2019-05-02T21:03:32.420Z,10.45
2019-05-02T21:06:36.974Z,10.51
2019-05-02T21:09:15.085Z,10.57
2019-05-02T21:11:52.970Z,10.62
2019-05-02T21:14:25.945Z,10.65
2019-05-02T21:16:58.848Z,10.70
2019-05-02T21:19:32.364Z,10.74
2019-05-02T21:22:09.320Z,10.77
2019-05-02T21:24:42.128Z,10.77
2019-05-02T21:27:15.100Z,10.83
2019-05-02T21:29:47.961Z,10.86
2019-05-02T21:32:22.729Z,10.89
2019-05-02T21:34:55.027Z,10.92
2019-05-02T21:37:28.057Z,10.94
2019-05-02T21:40:02.710Z,10.95
2019-05-02T21:42:35.200Z,10.97
2019-05-02T21:45:08.350Z,10.97
2019-05-02T21:47:42.057Z,10.97
2019-05-02T21:50:21.652Z,10.97
2019-05-02T21:53:12.697Z,11.00
2019-05-02T21:55:56.370Z,11.01
2019-05-02T21:58:28.915Z,10.99
2019-05-02T22:01:04.734Z,10.97
2019-05-02T22:03:39.372Z,10.96
2019-05-02T22:06:12.358Z,10.93
2019-05-02T22:08:45.290Z,10.91
2019-05-02T22:11:17.924Z,10.89
2019-05-02T22:13:51.654Z,10.87
2019-05-02T22:16:24.801Z,10.86
2019-05-02T22:18:57.390Z,10.88
2019-05-02T22:21:34.742Z,10.86
2019-05-02T22:24:11.073Z,10.86
2019-05-02T22:26:43.196Z,10.85
2019-05-02T22:29:13.928Z,10.84
2019-05-02T22:31:46.780Z,10.81
2019-05-02T22:34:19.499Z,10.80
2019-05-02T22:36:54.243Z,10.80
2019-05-02T22:39:34.357Z,10.80
2019-05-02T22:42:07.559Z,10.86
2019-05-02T22:44:41.726Z,10.88
2019-05-02T22:47:14.750Z,10.92
2019-05-02T22:49:47.544Z,10.96
2019-05-02T22:52:21.842Z,10.99
2019-05-02T22:54:54.721Z,10.99
2019-05-02T22:57:27.530Z,10.98
2019-05-02T23:00:01.894Z,10.95
2019-05-02T23:02:35.985Z,10.92
2019-05-02T23:05:09.169Z,10.85
2019-05-02T23:07:41.958Z,10.81
2019-05-02T23:10:14.975Z,10.75
2019-05-02T23:12:47.905Z,10.71
2019-05-02T23:15:21.688Z,10.67
2019-05-02T23:17:55.770Z,10.65
2019-05-02T23:20:28.560Z,10.63
2019-05-02T23:23:01.901Z,10.62
2019-05-02T23:25:52.325Z,10.61
2019-05-02T23:28:29.215Z,10.63
2019-05-02T23:31:02.613Z,10.62
2019-05-02T23:33:53.150Z,10.62
2019-05-02T23:36:26.420Z,10.58
2019-05-02T23:39:01.676Z,10.55
2019-05-02T23:41:35.417Z,10.54
2019-05-02T23:44:08.330Z,10.55
2019-05-02T23:46:42.424Z,10.56
2019-05-02T23:49:15.570Z,10.58
2019-05-02T23:51:48.355Z,10.62
2019-05-02T23:54:22.007Z,10.65
2019-05-02T23:56:57.479Z,10.67
2019-05-02T23:59:29.206Z,10.70
